createdAt,value
2024-03-05T00:00:34.685Z,968.36
2024-03-05T00:01:34.727Z,968.36
2024-03-05T00:02:34.650Z,968.33
2024-03-05T00:03:34.663Z,968.34
2024-03-05T00:04:34.681Z,968.36
2024-03-05T00:05:34.602Z,968.38
2024-03-05T00:06:34.595Z,968.37
2024-03-05T00:07:34.589Z,968.35
2024-03-05T00:08:34.572Z,968.38
2024-03-05T00:09:34.545Z,968.36
2024-03-05T00:10:34.561Z,968.34
2024-03-05T00:11:34.597Z,968.33
2024-03-05T00:12:34.561Z,968.39
2024-03-05T00:13:34.546Z,968.34
2024-03-05T00:14:34.480Z,968.35
2024-03-05T00:15:34.459Z,968.39
2024-03-05T00:16:34.468Z,968.39
2024-03-05T00:17:34.495Z,968.37
2024-03-05T00:18:34.419Z,968.37
2024-03-05T00:19:34.524Z,968.36
2024-03-05T00:20:34.444Z,968.38
2024-03-05T00:21:34.388Z,968.32
2024-03-05T00:22:34.386Z,968.38
2024-03-05T00:23:34.337Z,968.39
2024-03-05T00:24:34.325Z,968.41
2024-03-05T00:25:34.384Z,968.40
2024-03-05T00:26:34.301Z,968.40
2024-03-05T00:27:34.283Z,968.40
2024-03-05T00:28:34.317Z,968.40
2024-03-05T00:29:34.247Z,968.41
2024-03-05T00:30:34.243Z,968.43
2024-03-05T00:31:34.312Z,968.46
2024-03-05T00:32:34.221Z,968.44
2024-03-05T00:33:34.237Z,968.41
2024-03-05T00:34:34.224Z,968.42
2024-03-05T00:35:34.178Z,968.50
2024-03-05T00:36:34.147Z,968.48
2024-03-05T00:37:34.161Z,968.45
2024-03-05T00:38:34.498Z,968.50
2024-03-05T00:39:34.107Z,968.48
2024-03-05T00:40:34.156Z,968.50
2024-03-05T00:41:34.071Z,968.50
2024-03-05T00:42:34.056Z,968.52
2024-03-05T00:43:34.119Z,968.49
2024-03-05T00:44:34.029Z,968.53
2024-03-05T00:45:34.023Z,968.49
2024-03-05T00:46:34.098Z,968.52
2024-03-05T00:47:34.047Z,968.53
2024-03-05T00:48:33.968Z,968.51
2024-03-05T00:49:34.175Z,968.57
2024-03-05T00:50:33.940Z,968.53
2024-03-05T00:51:33.968Z,968.55
2024-03-05T00:52:33.991Z,968.55
2024-03-05T00:53:33.894Z,968.56
2024-03-05T00:54:33.888Z,968.53
2024-03-05T00:55:33.904Z,968.52
2024-03-05T00:56:33.844Z,968.57
2024-03-05T00:57:33.831Z,968.55
2024-03-05T00:58:33.823Z,968.55
2024-03-05T00:59:33.804Z,968.57
2024-03-05T01:00:33.787Z,968.55
2024-03-05T01:01:33.836Z,968.56
2024-03-05T01:02:33.798Z,968.53
2024-03-05T01:03:33.744Z,968.55
2024-03-05T01:04:33.765Z,968.55
2024-03-05T01:05:33.727Z,968.54
2024-03-05T01:06:33.704Z,968.56
2024-03-05T01:07:33.804Z,968.53
2024-03-05T01:08:33.670Z,968.54
2024-03-05T01:09:33.661Z,968.56
2024-03-05T01:10:33.656Z,968.53
2024-03-05T01:11:33.640Z,968.55
2024-03-05T01:12:33.619Z,968.55
2024-03-05T01:13:33.662Z,968.56
2024-03-05T01:14:33.584Z,968.62
2024-03-05T01:15:33.567Z,968.56
2024-03-05T01:16:33.583Z,968.57
2024-03-05T01:17:33.589Z,968.54
2024-03-05T01:18:33.521Z,968.48
2024-03-05T01:19:33.550Z,968.52
2024-03-05T01:20:33.496Z,968.51
2024-03-05T01:21:33.476Z,968.48
2024-03-05T01:22:33.477Z,968.52
2024-03-05T01:23:33.553Z,968.49
2024-03-05T01:24:33.438Z,968.44
2024-03-05T01:25:33.435Z,968.48
2024-03-05T01:26:33.401Z,968.45
2024-03-05T01:27:33.395Z,968.49
2024-03-05T01:28:33.414Z,968.49
2024-03-05T01:29:33.358Z,968.53
2024-03-05T01:30:33.342Z,968.57
2024-03-05T01:31:33.352Z,968.58
2024-03-05T01:32:33.358Z,968.55
2024-03-05T01:33:33.300Z,968.54
2024-03-05T01:34:33.300Z,968.57
2024-03-05T01:35:33.277Z,968.59
2024-03-05T01:36:33.265Z,968.55
2024-03-05T01:37:33.272Z,968.57
2024-03-05T01:38:33.227Z,968.58
2024-03-05T01:39:33.234Z,968.60
2024-03-05T01:40:33.230Z,968.62
2024-03-05T01:41:33.189Z,968.61
2024-03-05T01:42:33.169Z,968.58
2024-03-05T01:43:33.192Z,968.64
2024-03-05T01:44:33.134Z,968.63
2024-03-05T01:45:33.325Z,968.63
2024-03-05T01:46:33.147Z,968.63
2024-03-05T01:47:33.097Z,968.64
2024-03-05T01:48:33.077Z,968.61
2024-03-05T01:49:33.117Z,968.66
2024-03-05T01:50:33.059Z,968.66
2024-03-05T01:51:33.035Z,968.66
2024-03-05T01:52:33.075Z,968.69
2024-03-05T01:53:33.005Z,968.70
2024-03-05T01:54:32.996Z,968.70
2024-03-05T01:55:33.026Z,968.67
2024-03-05T01:56:32.958Z,968.66
2024-03-05T01:57:32.946Z,968.64
2024-03-05T01:58:32.954Z,968.61
2024-03-05T01:59:32.919Z,968.67
2024-03-05T02:00:32.899Z,968.68
2024-03-05T02:01:32.923Z,968.69
2024-03-05T02:02:32.871Z,968.68
2024-03-05T02:03:32.851Z,968.71
2024-03-05T02:04:33.009Z,968.70
2024-03-05T02:05:32.837Z,968.68
2024-03-05T02:06:32.808Z,968.64
2024-03-05T02:07:32.874Z,968.66
2024-03-05T02:08:32.778Z,968.69
2024-03-05T02:09:32.765Z,968.71
2024-03-05T02:10:32.787Z,968.73
2024-03-05T02:11:32.865Z,968.71
2024-03-05T02:12:32.717Z,968.73
2024-03-05T02:13:32.764Z,968.75
2024-03-05T02:14:32.711Z,968.73
2024-03-05T02:15:32.712Z,968.74
2024-03-05T02:16:32.658Z,968.75
2024-03-05T02:17:32.688Z,968.77
2024-03-05T02:18:32.627Z,968.82
2024-03-05T02:19:32.800Z,968.79
2024-03-05T02:20:32.604Z,968.82
2024-03-05T02:21:32.599Z,968.83
2024-03-05T02:22:32.590Z,968.83
2024-03-05T02:23:32.553Z,968.84
2024-03-05T02:24:32.536Z,968.83
2024-03-05T02:25:32.719Z,968.85
2024-03-05T02:26:32.504Z,968.88
2024-03-05T02:27:35.080Z,968.87
2024-03-05T02:28:32.526Z,968.90
2024-03-05T02:29:32.465Z,968.89
2024-03-05T02:30:32.458Z,968.86
2024-03-05T02:31:32.446Z,968.90
2024-03-05T02:32:32.436Z,968.90
2024-03-05T02:33:32.406Z,968.91
2024-03-05T02:34:32.445Z,968.91
2024-03-05T02:35:32.375Z,968.94
2024-03-05T02:36:32.357Z,968.90
2024-03-05T02:37:32.358Z,968.86
2024-03-05T02:38:32.326Z,968.89
2024-03-05T02:39:32.310Z,968.89
2024-03-05T02:40:32.312Z,968.87
2024-03-05T02:41:32.281Z,968.85
2024-03-05T02:42:32.268Z,968.85
2024-03-05T02:43:32.288Z,968.84
2024-03-05T02:44:32.235Z,968.90
2024-03-05T02:45:32.223Z,968.88
2024-03-05T02:46:32.227Z,968.90
2024-03-05T02:47:32.222Z,968.90
2024-03-05T02:48:32.182Z,968.89
2024-03-05T02:49:32.198Z,968.93
2024-03-05T02:50:32.145Z,968.92
2024-03-05T02:51:32.137Z,968.95
2024-03-05T02:52:32.189Z,968.96
2024-03-05T02:53:32.103Z,968.93
2024-03-05T02:54:32.089Z,968.92
2024-03-05T02:55:32.091Z,968.93
2024-03-05T02:56:32.053Z,968.92
2024-03-05T02:57:32.041Z,968.98
2024-03-05T02:58:32.048Z,968.96
2024-03-05T02:59:32.034Z,969.02
2024-03-05T03:00:32.024Z,969.02
2024-03-05T03:01:32.000Z,969.04
2024-03-05T03:02:31.963Z,969.03
2024-03-05T03:03:31.963Z,969.05
2024-03-05T03:04:31.945Z,969.06
2024-03-05T03:05:31.924Z,969.06
2024-03-05T03:06:31.918Z,969.06
2024-03-05T03:07:31.963Z,969.09
2024-03-05T03:08:31.875Z,969.10
2024-03-05T03:09:31.867Z,969.14
2024-03-05T03:10:31.880Z,969.11
2024-03-05T03:11:31.916Z,969.13
2024-03-05T03:12:31.813Z,969.15
2024-03-05T03:13:31.836Z,969.18
2024-03-05T03:14:31.781Z,969.26
2024-03-05T03:15:31.861Z,969.23
2024-03-05T03:16:31.822Z,969.30
2024-03-05T03:17:34.275Z,969.28
2024-03-05T03:18:31.721Z,969.28
2024-03-05T03:19:31.724Z,969.32
2024-03-05T03:20:31.694Z,969.29
2024-03-05T03:21:31.685Z,969.33
2024-03-05T03:22:31.837Z,969.29
2024-03-05T03:23:31.665Z,969.29
2024-03-05T03:24:31.655Z,969.33
2024-03-05T03:25:35.350Z,969.38
2024-03-05T03:26:31.628Z,969.36
2024-03-05T03:27:31.586Z,969.35
2024-03-05T03:28:31.615Z,969.38
2024-03-05T03:29:31.569Z,969.39
2024-03-05T03:30:31.547Z,969.40
2024-03-05T03:31:31.732Z,969.37
2024-03-05T03:32:31.577Z,969.33
2024-03-05T03:33:31.505Z,969.37
2024-03-05T03:34:31.559Z,969.34
2024-03-05T03:35:31.473Z,969.34
2024-03-05T03:36:31.457Z,969.36
2024-03-05T03:37:31.505Z,969.42
2024-03-05T03:38:31.418Z,969.41
2024-03-05T03:39:31.419Z,969.41
2024-03-05T03:40:31.436Z,969.41
2024-03-05T03:41:31.384Z,969.43
2024-03-05T03:42:31.363Z,969.44
2024-03-05T03:43:31.367Z,969.45
2024-03-05T03:44:31.330Z,969.42
2024-03-05T03:45:31.322Z,969.48
2024-03-05T03:46:31.360Z,969.46
2024-03-05T03:47:31.358Z,969.46
2024-03-05T03:48:31.273Z,969.52
2024-03-05T03:49:31.278Z,969.46
2024-03-05T03:50:31.239Z,969.53
2024-03-05T03:51:31.227Z,969.55
2024-03-05T03:52:31.295Z,969.55
2024-03-05T03:53:31.200Z,969.56
2024-03-05T03:54:31.180Z,969.56
2024-03-05T03:55:31.264Z,969.53
2024-03-05T03:56:31.156Z,969.53
2024-03-05T03:57:31.134Z,969.53
2024-03-05T03:58:31.153Z,969.54
2024-03-05T03:59:31.109Z,969.53
2024-03-05T04:00:31.093Z,969.54
2024-03-05T04:01:31.156Z,969.53
2024-03-05T04:02:31.062Z,969.54
2024-03-05T04:03:31.085Z,969.54
2024-03-05T04:04:31.096Z,969.58
2024-03-05T04:05:31.018Z,969.62
2024-03-05T04:06:31.005Z,969.62
2024-03-05T04:07:31.034Z,969.61
2024-03-05T04:08:30.982Z,969.62
2024-03-05T04:09:30.968Z,969.66
2024-03-05T04:10:30.953Z,969.61
2024-03-05T04:11:30.956Z,969.62
2024-03-05T04:12:30.986Z,969.64
2024-03-05T04:13:30.934Z,969.61
2024-03-05T04:14:30.882Z,969.62
2024-03-05T04:15:30.869Z,969.60
2024-03-05T04:16:30.867Z,969.62
2024-03-05T04:17:30.885Z,969.63
2024-03-05T04:18:30.827Z,969.65
2024-03-05T04:19:30.856Z,969.64
2024-03-05T04:20:30.842Z,969.64
2024-03-05T04:21:30.780Z,969.65
2024-03-05T04:22:30.774Z,969.64
2024-03-05T04:23:30.771Z,969.64
2024-03-05T04:24:30.734Z,969.63
2024-03-05T04:25:33.669Z,969.65
2024-03-05T04:26:30.709Z,969.59
2024-03-05T04:27:30.697Z,969.63
2024-03-05T04:28:30.755Z,969.64
2024-03-05T04:29:30.670Z,969.61
2024-03-05T04:30:30.642Z,969.61
2024-03-05T04:31:30.775Z,969.62
2024-03-05T04:32:30.758Z,969.64
2024-03-05T04:33:30.695Z,969.57
2024-03-05T04:34:30.602Z,969.66
2024-03-05T04:35:30.816Z,969.62
2024-03-05T04:36:30.551Z,969.63
2024-03-05T04:37:30.580Z,969.60
2024-03-05T04:38:30.522Z,969.64
2024-03-05T04:39:30.507Z,969.59
2024-03-05T04:40:30.515Z,969.62
2024-03-05T04:41:30.477Z,969.62
2024-03-05T04:42:30.464Z,969.64
2024-03-05T04:43:30.486Z,969.63
2024-03-05T04:44:30.428Z,969.64
2024-03-05T04:45:30.414Z,969.67
2024-03-05T04:46:30.423Z,969.67
2024-03-05T04:47:30.405Z,969.68
2024-03-05T04:48:30.365Z,969.68
2024-03-05T04:49:30.429Z,969.66
2024-03-05T04:50:30.370Z,969.66
2024-03-05T04:51:30.369Z,969.73
2024-03-05T04:52:32.884Z,969.68
2024-03-05T04:53:30.297Z,969.70
2024-03-05T04:54:30.280Z,969.71
2024-03-05T04:55:30.388Z,969.70
2024-03-05T04:56:30.280Z,969.70
2024-03-05T04:57:30.240Z,969.70
2024-03-05T04:58:30.250Z,969.74
2024-03-05T04:59:30.204Z,969.76
2024-03-05T05:00:30.187Z,969.77
2024-03-05T05:01:30.303Z,969.76
2024-03-05T05:02:30.159Z,969.82
2024-03-05T05:03:30.145Z,969.83
2024-03-05T05:04:30.219Z,969.80
2024-03-05T05:05:30.117Z,969.83
2024-03-05T05:06:30.098Z,969.85
2024-03-05T05:07:30.137Z,969.85
2024-03-05T05:08:30.064Z,969.87
2024-03-05T05:09:30.054Z,969.89
2024-03-05T05:10:30.250Z,969.88
2024-03-05T05:11:30.414Z,969.92
2024-03-05T05:12:30.032Z,969.92
2024-03-05T05:13:30.137Z,969.93
2024-03-05T05:14:30.067Z,969.91
2024-03-05T05:15:30.135Z,969.89
2024-03-05T05:16:30.134Z,969.92
2024-03-05T05:17:30.084Z,969.88
2024-03-05T05:18:29.921Z,969.83
2024-03-05T05:19:29.945Z,969.87
2024-03-05T05:20:29.910Z,969.90
2024-03-05T05:21:29.874Z,969.90
2024-03-05T05:22:29.882Z,969.88
2024-03-05T05:23:29.880Z,969.85
2024-03-05T05:24:29.832Z,969.87
2024-03-05T05:25:29.881Z,969.89
2024-03-05T05:26:29.813Z,969.87
2024-03-05T05:27:29.785Z,969.88
2024-03-05T05:28:29.800Z,969.89
2024-03-05T05:29:39.893Z,969.89
2024-03-05T05:30:29.745Z,969.89
2024-03-05T05:31:29.740Z,969.87
2024-03-05T05:32:29.752Z,969.84
2024-03-05T05:33:29.697Z,969.88
2024-03-05T05:34:29.721Z,969.85
2024-03-05T05:35:29.662Z,969.88
2024-03-05T05:36:29.646Z,969.88
2024-03-05T05:37:29.670Z,969.90
2024-03-05T05:38:29.661Z,969.90
2024-03-05T05:39:29.617Z,969.91
2024-03-05T05:40:29.637Z,969.95
2024-03-05T05:41:29.580Z,969.90
2024-03-05T05:42:29.562Z,969.96
2024-03-05T05:43:29.585Z,969.96
2024-03-05T05:44:29.526Z,969.95
2024-03-05T05:45:29.509Z,969.95
2024-03-05T05:46:29.506Z,969.96
2024-03-05T05:47:29.598Z,969.96
2024-03-05T05:48:30.135Z,969.99
2024-03-05T05:49:29.490Z,970.03
2024-03-05T05:50:29.442Z,970.01
2024-03-05T05:51:29.429Z,970.04
2024-03-05T05:52:29.460Z,970.00
2024-03-05T05:53:29.391Z,970.02
2024-03-05T05:54:29.382Z,970.02
2024-03-05T05:55:29.632Z,970.01
2024-03-05T05:56:29.343Z,970.04
2024-03-05T05:57:29.327Z,970.03
2024-03-05T05:58:29.336Z,970.01
2024-03-05T05:59:29.298Z,970.05
2024-03-05T06:00:29.283Z,970.00
2024-03-05T06:01:29.330Z,970.02
2024-03-05T06:02:29.405Z,970.02
2024-03-05T06:03:29.241Z,970.03
2024-03-05T06:04:29.253Z,970.05
2024-03-05T06:05:29.209Z,970.04
2024-03-05T06:06:29.192Z,970.05
2024-03-05T06:07:29.194Z,970.08
2024-03-05T06:08:29.162Z,970.10
2024-03-05T06:09:29.209Z,970.08
2024-03-05T06:10:29.138Z,970.09
2024-03-05T06:11:29.195Z,970.13
2024-03-05T06:12:29.107Z,970.14
2024-03-05T06:13:29.109Z,970.16
2024-03-05T06:14:29.072Z,970.14
2024-03-05T06:15:29.053Z,970.17
2024-03-05T06:16:29.072Z,970.17
2024-03-05T06:17:29.106Z,970.10
2024-03-05T06:18:29.013Z,970.09
2024-03-05T06:19:29.043Z,970.11
2024-03-05T06:20:28.990Z,970.14
2024-03-05T06:21:28.969Z,970.18
2024-03-05T06:22:34.119Z,970.18
2024-03-05T06:23:28.995Z,970.23
2024-03-05T06:24:28.933Z,970.20
2024-03-05T06:25:29.064Z,970.24
2024-03-05T06:26:28.898Z,970.27
2024-03-05T06:27:28.907Z,970.25
2024-03-05T06:28:28.893Z,970.27
2024-03-05T06:29:28.844Z,970.34
2024-03-05T06:30:28.833Z,970.35
2024-03-05T06:31:28.854Z,970.27
2024-03-05T06:32:28.814Z,970.36
2024-03-05T06:33:28.782Z,970.43
2024-03-05T06:34:28.812Z,970.44
2024-03-05T06:35:28.839Z,970.39
2024-03-05T06:36:28.737Z,970.42
2024-03-05T06:37:28.743Z,970.41
2024-03-05T06:38:28.713Z,970.43
2024-03-05T06:39:28.700Z,970.41
2024-03-05T06:40:28.706Z,970.41
2024-03-05T06:41:28.669Z,970.43
2024-03-05T06:42:28.649Z,970.44
2024-03-05T06:43:28.707Z,970.44
2024-03-05T06:44:28.623Z,970.47
2024-03-05T06:45:29.376Z,970.46
2024-03-05T06:46:28.596Z,970.51
2024-03-05T06:47:28.628Z,970.51
2024-03-05T06:48:28.580Z,970.48
2024-03-05T06:49:28.909Z,970.53
2024-03-05T06:50:28.524Z,970.52
2024-03-05T06:51:28.555Z,970.52
2024-03-05T06:52:28.507Z,970.56
2024-03-05T06:53:28.478Z,970.58
2024-03-05T06:54:28.471Z,970.64
2024-03-05T06:55:28.469Z,970.65
2024-03-05T06:56:28.431Z,970.66
2024-03-05T06:57:28.413Z,970.69
2024-03-05T06:58:28.423Z,970.71
2024-03-05T06:59:28.483Z,970.67
2024-03-05T07:00:28.390Z,970.76
2024-03-05T07:01:28.453Z,970.74
2024-03-05T07:02:28.395Z,970.76
2024-03-05T07:03:28.318Z,970.79
2024-03-05T07:04:28.354Z,970.81
2024-03-05T07:05:28.288Z,970.81
2024-03-05T07:06:28.290Z,970.81
2024-03-05T07:07:28.288Z,970.80
2024-03-05T07:08:28.997Z,970.86
2024-03-05T07:09:28.265Z,970.92
2024-03-05T07:10:28.250Z,970.88
2024-03-05T07:11:28.421Z,970.93
2024-03-05T07:12:28.184Z,970.93
2024-03-05T07:13:28.231Z,970.98
2024-03-05T07:14:28.166Z,970.94
2024-03-05T07:15:28.160Z,970.95
2024-03-05T07:16:28.211Z,970.96
2024-03-05T07:17:28.137Z,970.98
2024-03-05T07:18:28.092Z,970.99
2024-03-05T07:19:28.117Z,970.98
2024-03-05T07:20:28.064Z,970.96
2024-03-05T07:21:28.046Z,971.03
2024-03-05T07:22:28.046Z,971.01
2024-03-05T07:23:28.019Z,971.03
2024-03-05T07:24:28.006Z,971.02
2024-03-05T07:25:28.012Z,971.00
2024-03-05T07:26:27.969Z,970.98
2024-03-05T07:27:27.958Z,971.02
2024-03-05T07:28:27.949Z,970.99
2024-03-05T07:29:27.924Z,971.00
2024-03-05T07:30:27.908Z,971.02
2024-03-05T07:31:27.958Z,971.00
2024-03-05T07:32:27.890Z,971.05
2024-03-05T07:33:27.915Z,971.05
2024-03-05T07:34:27.858Z,971.06
2024-03-05T07:35:27.829Z,971.03
2024-03-05T07:36:27.826Z,971.08
2024-03-05T07:37:27.837Z,971.06
2024-03-05T07:38:27.805Z,971.03
2024-03-05T07:39:27.772Z,971.05
2024-03-05T07:40:27.786Z,971.08
2024-03-05T07:41:33.779Z,971.10
2024-03-05T07:42:27.724Z,971.10
2024-03-05T07:43:27.752Z,971.08
2024-03-05T07:44:27.693Z,971.08
2024-03-05T07:45:27.673Z,971.08
2024-03-05T07:46:27.702Z,971.09
2024-03-05T07:47:27.726Z,971.11
2024-03-05T07:48:27.650Z,971.12
2024-03-05T07:49:27.676Z,971.13
2024-03-05T07:50:27.604Z,971.10
2024-03-05T07:52:27.589Z,971.14
2024-03-05T07:53:27.553Z,971.08
2024-03-05T07:54:27.537Z,971.13
2024-03-05T07:55:32.033Z,971.13
2024-03-05T07:56:27.545Z,971.14
2024-03-05T07:57:27.491Z,971.15
2024-03-05T07:58:27.502Z,971.14
2024-03-05T07:59:27.460Z,971.19
2024-03-05T08:00:27.453Z,971.14
2024-03-05T08:01:27.480Z,971.19
2024-03-05T08:02:27.426Z,971.17
2024-03-05T08:03:27.422Z,971.17
2024-03-05T08:04:27.422Z,971.18
2024-03-05T08:05:27.375Z,971.14
2024-03-05T08:06:27.350Z,971.15
2024-03-05T08:07:27.396Z,971.17
2024-03-05T08:08:27.320Z,971.15
2024-03-05T08:09:27.304Z,971.18
2024-03-05T08:10:27.316Z,971.17
2024-03-05T08:11:27.333Z,971.15
2024-03-05T08:12:27.262Z,971.19
2024-03-05T08:13:27.274Z,971.18
2024-03-05T08:14:27.237Z,971.21
2024-03-05T08:15:27.214Z,971.22
2024-03-05T08:16:27.301Z,971.22
2024-03-05T08:17:27.184Z,971.23
2024-03-05T08:18:27.166Z,971.24
2024-03-05T08:19:27.208Z,971.22
2024-03-05T08:20:27.286Z,971.25
2024-03-05T08:21:27.128Z,971.27
2024-03-05T08:22:27.201Z,971.25
2024-03-05T08:23:27.095Z,971.31
2024-03-05T08:24:27.075Z,971.29
2024-03-05T08:25:27.129Z,971.31
2024-03-05T08:26:27.042Z,971.35
2024-03-05T08:27:27.036Z,971.34
2024-03-05T08:28:27.049Z,971.34
2024-03-05T08:29:27.015Z,971.33
2024-03-05T08:30:27.024Z,971.34
2024-03-05T08:31:27.097Z,971.37
2024-03-05T08:32:26.984Z,971.31
2024-03-05T08:33:26.991Z,971.36
2024-03-05T08:34:26.960Z,971.31
2024-03-05T08:35:27.032Z,971.31
2024-03-05T08:36:27.058Z,971.37
2024-03-05T08:37:26.903Z,971.37
2024-03-05T08:38:26.859Z,971.38
2024-03-05T08:39:26.846Z,971.33
2024-03-05T08:40:26.892Z,971.38
2024-03-05T08:41:26.820Z,971.36
2024-03-05T08:42:26.800Z,971.33
2024-03-05T08:43:26.813Z,971.30
2024-03-05T08:44:26.771Z,971.32
2024-03-05T08:45:26.754Z,971.33
2024-03-05T08:46:26.772Z,971.34
2024-03-05T08:47:26.774Z,971.29
2024-03-05T08:48:26.757Z,971.34
2024-03-05T08:49:26.760Z,971.40
2024-03-05T08:50:26.678Z,971.38
2024-03-05T08:51:26.681Z,971.36
2024-03-05T08:52:26.671Z,971.39
2024-03-05T08:53:26.636Z,971.38
2024-03-05T08:54:26.621Z,971.33
2024-03-05T08:55:26.634Z,971.31
2024-03-05T08:56:26.589Z,971.32
2024-03-05T08:57:26.573Z,971.31
2024-03-05T08:58:26.651Z,971.29
2024-03-05T08:59:26.544Z,971.35
2024-03-05T09:00:36.430Z,971.35
2024-03-05T09:01:26.565Z,971.34
2024-03-05T09:02:26.502Z,971.36
2024-03-05T09:03:26.484Z,971.37
2024-03-05T09:04:26.480Z,971.35
2024-03-05T09:05:26.456Z,971.36
2024-03-05T09:06:26.439Z,971.35
2024-03-05T09:07:26.456Z,971.35
2024-03-05T09:08:26.408Z,971.36
2024-03-05T09:09:26.443Z,971.35
2024-03-05T09:10:26.425Z,971.34
2024-03-05T09:11:26.388Z,971.36
2024-03-05T09:12:26.349Z,971.35
2024-03-05T09:13:26.365Z,971.37
2024-03-05T09:14:26.325Z,971.32
2024-03-05T09:15:26.314Z,971.36
2024-03-05T09:16:26.337Z,971.36
2024-03-05T09:17:26.281Z,971.37
2024-03-05T09:18:26.261Z,971.34
2024-03-05T09:19:26.303Z,971.38
2024-03-05T09:20:26.252Z,971.34
2024-03-05T09:21:26.216Z,971.35
2024-03-05T09:22:26.240Z,971.37
2024-03-05T09:23:26.225Z,971.40
2024-03-05T09:24:26.173Z,971.40
2024-03-05T09:25:26.174Z,971.42
2024-03-05T09:26:26.145Z,971.45
2024-03-05T09:27:26.142Z,971.48
2024-03-05T09:28:26.173Z,971.43
2024-03-05T09:29:26.096Z,971.47
2024-03-05T09:30:26.091Z,971.43
2024-03-05T09:31:26.126Z,971.50
2024-03-05T09:32:26.064Z,971.49
2024-03-05T09:33:26.038Z,971.47
2024-03-05T09:34:26.047Z,971.51
2024-03-05T09:35:26.007Z,971.49
2024-03-05T09:36:25.997Z,971.48
2024-03-05T09:37:26.025Z,971.48
2024-03-05T09:38:25.966Z,971.51
2024-03-05T09:39:25.974Z,971.52
2024-03-05T09:40:25.948Z,971.51
2024-03-05T09:41:25.916Z,971.52
2024-03-05T09:42:25.904Z,971.51
2024-03-05T09:43:25.904Z,971.52
2024-03-05T09:44:25.883Z,971.50
2024-03-05T09:45:25.865Z,971.52
2024-03-05T09:46:25.870Z,971.52
2024-03-05T09:47:25.837Z,971.55
2024-03-05T09:48:25.818Z,971.57
2024-03-05T09:49:26.808Z,971.57
2024-03-05T09:50:25.801Z,971.56
2024-03-05T09:51:25.772Z,971.56
2024-03-05T09:52:25.778Z,971.54
2024-03-05T09:53:25.742Z,971.62
2024-03-05T09:54:25.732Z,971.62
2024-03-05T09:55:25.757Z,971.56
2024-03-05T09:56:25.703Z,971.60
2024-03-05T09:57:25.688Z,971.60
2024-03-05T09:58:25.701Z,971.61
2024-03-05T09:59:25.656Z,971.59
2024-03-05T10:00:25.647Z,971.58
2024-03-05T10:01:25.677Z,971.57
2024-03-05T10:02:28.932Z,971.57
2024-03-05T10:03:25.600Z,971.57
2024-03-05T10:04:25.620Z,971.59
2024-03-05T10:05:25.601Z,971.58
2024-03-05T10:06:25.595Z,971.61
2024-03-05T10:07:25.555Z,971.60
2024-03-05T10:08:25.531Z,971.58
2024-03-05T10:09:26.109Z,971.56
2024-03-05T10:10:25.512Z,971.56
2024-03-05T10:11:25.616Z,971.59
2024-03-05T10:12:25.474Z,971.57
2024-03-05T10:13:25.472Z,971.56
2024-03-05T10:14:25.507Z,971.60
2024-03-05T10:15:25.429Z,971.59
2024-03-05T10:16:25.459Z,971.57
2024-03-05T10:17:25.396Z,971.62
2024-03-05T10:18:25.395Z,971.64
2024-03-05T10:19:25.422Z,971.62
2024-03-05T10:20:25.369Z,971.61
2024-03-05T10:21:25.349Z,971.61
2024-03-05T10:22:25.360Z,971.60
2024-03-05T10:23:28.934Z,971.66
2024-03-05T10:24:25.309Z,971.64
2024-03-05T10:25:25.379Z,971.59
2024-03-05T10:26:25.282Z,971.61
2024-03-05T10:27:25.284Z,971.61
2024-03-05T10:28:25.317Z,971.57
2024-03-05T10:29:25.232Z,971.56
2024-03-05T10:30:25.218Z,971.50
2024-03-05T10:31:25.262Z,971.51
2024-03-05T10:32:25.200Z,971.48
2024-03-05T10:33:25.179Z,971.49
2024-03-05T10:34:25.193Z,971.50
2024-03-05T10:35:25.202Z,971.52
2024-03-05T10:36:25.136Z,971.50
2024-03-05T10:37:25.178Z,971.53
2024-03-05T10:38:25.109Z,971.52
2024-03-05T10:39:25.099Z,971.55
2024-03-05T10:40:25.120Z,971.54
2024-03-05T10:41:31.779Z,971.54
2024-03-05T10:42:25.054Z,971.57
2024-03-05T10:43:25.081Z,971.58
2024-03-05T10:44:25.031Z,971.58
2024-03-05T10:45:25.014Z,971.57
2024-03-05T10:46:25.038Z,971.61
2024-03-05T10:47:25.925Z,971.62
2024-03-05T10:48:25.031Z,971.63
2024-03-05T10:49:25.015Z,971.60
2024-03-05T10:50:24.949Z,971.66
2024-03-05T10:51:24.933Z,971.63
2024-03-05T10:52:24.930Z,971.64
2024-03-05T10:53:24.912Z,971.68
2024-03-05T10:54:24.921Z,971.64
2024-03-05T10:55:24.922Z,971.67
2024-03-05T10:56:29.464Z,971.64
2024-03-05T10:57:24.858Z,971.72
2024-03-05T10:58:24.852Z,971.66
2024-03-05T10:59:24.856Z,971.67
2024-03-05T11:00:24.815Z,971.67
2024-03-05T11:01:24.919Z,971.66
2024-03-05T11:02:24.810Z,971.61
2024-03-05T11:03:24.777Z,971.60
2024-03-05T11:04:24.796Z,971.63
2024-03-05T11:05:24.840Z,971.57
2024-03-05T11:06:24.736Z,971.57
2024-03-05T11:07:24.753Z,971.55
2024-03-05T11:08:24.710Z,971.53
2024-03-05T11:09:24.759Z,971.61
2024-03-05T11:10:24.743Z,971.57
2024-03-05T11:11:24.778Z,971.58
2024-03-05T11:12:24.675Z,971.59
2024-03-05T11:13:24.708Z,971.56
2024-03-05T11:14:24.714Z,971.54
2024-03-05T11:15:24.677Z,971.54
2024-03-05T11:16:25.292Z,971.54
2024-03-05T11:17:24.597Z,971.55
2024-03-05T11:18:24.622Z,971.55
2024-03-05T11:19:24.770Z,971.55
2024-03-05T11:20:24.551Z,971.52
2024-03-05T11:21:24.549Z,971.58
2024-03-05T11:22:24.869Z,971.57
2024-03-05T11:23:24.503Z,971.62
2024-03-05T11:24:24.490Z,971.62
2024-03-05T11:25:24.496Z,971.55
2024-03-05T11:26:24.487Z,971.55
2024-03-05T11:27:24.463Z,971.54
2024-03-05T11:28:24.457Z,971.49
2024-03-05T11:29:24.415Z,971.52
2024-03-05T11:30:24.402Z,971.50
2024-03-05T11:31:24.514Z,971.42
2024-03-05T11:32:24.375Z,971.48
2024-03-05T11:33:24.396Z,971.44
2024-03-05T11:34:24.400Z,971.42
2024-03-05T11:35:24.332Z,971.46
2024-03-05T11:36:24.333Z,971.46
2024-03-05T11:38:24.286Z,971.40
2024-03-05T11:39:24.274Z,971.40
2024-03-05T11:40:24.355Z,971.38
2024-03-05T11:41:24.245Z,971.40
2024-03-05T11:42:24.238Z,971.44
2024-03-05T11:43:24.252Z,971.35
2024-03-05T11:44:24.198Z,971.40
2024-03-05T11:45:24.190Z,971.41
2024-03-05T11:46:24.203Z,971.35
2024-03-05T11:47:24.361Z,971.26
2024-03-05T11:48:24.140Z,971.32
2024-03-05T11:49:24.156Z,971.33
2024-03-05T11:50:24.112Z,971.30
2024-03-05T11:51:24.098Z,971.30
2024-03-05T11:52:24.100Z,971.31
2024-03-05T11:53:24.165Z,971.25
2024-03-05T11:54:25.389Z,971.22
2024-03-05T11:55:24.067Z,971.22
2024-03-05T11:56:24.030Z,971.15
2024-03-05T11:57:24.021Z,971.18
2024-03-05T11:58:24.033Z,971.26
2024-03-05T11:59:23.986Z,971.17
2024-03-05T12:00:23.977Z,971.10
2024-03-05T12:01:23.961Z,971.24
2024-03-05T12:02:24.212Z,971.20
2024-03-05T12:03:24.000Z,971.17
2024-03-05T12:04:23.929Z,971.18
2024-03-05T12:05:23.984Z,971.16
2024-03-05T12:06:23.881Z,971.16
2024-03-05T12:07:23.914Z,971.18
2024-03-05T12:08:23.855Z,971.15
2024-03-05T12:09:23.851Z,971.12
2024-03-05T12:10:23.848Z,971.12
2024-03-05T12:11:23.972Z,971.13
2024-03-05T12:12:23.799Z,971.11
2024-03-05T12:13:23.857Z,971.08
2024-03-05T12:14:23.771Z,971.08
2024-03-05T12:15:23.759Z,971.11
2024-03-05T12:16:23.770Z,971.12
2024-03-05T12:17:23.730Z,971.10
2024-03-05T12:18:23.726Z,971.06
2024-03-05T12:19:23.861Z,971.06
2024-03-05T12:20:23.689Z,971.04
2024-03-05T12:21:27.009Z,971.07
2024-03-05T12:22:23.697Z,971.09
2024-03-05T12:23:40.913Z,971.08
2024-03-05T12:24:23.700Z,971.05
2024-03-05T12:25:23.638Z,971.15
2024-03-05T12:26:23.610Z,971.12
2024-03-05T12:27:23.594Z,971.07
2024-03-05T12:28:23.633Z,971.03
2024-03-05T12:29:23.590Z,971.08
2024-03-05T12:30:25.665Z,971.04